sensor_id;sensor_type;location;lat;lon;timestamp;temperature;humidity
16929;DHT22;8581;47.334;11.190;2023-07-08T00:00:54;14.00;99.90
16929;DHT22;8581;47.334;11.190;2023-07-08T00:03:25;13.90;99.90
16929;DHT22;8581;47.334;11.190;2023-07-08T00:05:57;13.90;99.90
16929;DHT22;8581;47.334;11.190;2023-07-08T00:08:28;13.90;99.90
16929;DHT22;8581;47.334;11.190;2023-07-08T00:11:00;13.80;99.90
16929;DHT22;8581;47.334;11.190;2023-07-08T00:13:32;13.80;99.90
16929;DHT22;8581;47.334;11.190;2023-07-08T00:16:04;13.70;99.90
16929;DHT22;8581;47.334;11.190;2023-07-08T00:18:35;13.90;99.90
16929;DHT22;8581;47.334;11.190;2023-07-08T00:21:16;14.10;99.90
16929;DHT22;8581;47.334;11.190;2023-07-08T00:23:48;14.10;99.90
16929;DHT22;8581;47.334;11.190;2023-07-08T00:26:25;14.00;99.90
16929;DHT22;8581;47.334;11.190;2023-07-08T00:28:56;13.80;99.90
16929;DHT22;8581;47.334;11.190;2023-07-08T00:31:28;13.80;99.90
16929;DHT22;8581;47.334;11.190;2023-07-08T00:34:00;13.80;99.90
16929;DHT22;8581;47.334;11.190;2023-07-08T00:36:31;13.80;99.90
16929;DHT22;8581;47.334;11.190;2023-07-08T00:39:04;13.80;99.90
16929;DHT22;8581;47.334;11.190;2023-07-08T00:41:37;14.00;99.90
16929;DHT22;8581;47.334;11.190;2023-07-08T00:44:11;14.10;99.90
16929;DHT22;8581;47.334;11.190;2023-07-08T00:46:55;14.00;99.90
16929;DHT22;8581;47.334;11.190;2023-07-08T00:52:20;13.50;99.90
16929;DHT22;8581;47.334;11.190;2023-07-08T00:54:54;13.50;99.90
16929;DHT22;8581;47.334;11.190;2023-07-08T00:57:26;13.50;99.90
16929;DHT22;8581;47.334;11.190;2023-07-08T00:59:57;13.50;99.90
16929;DHT22;8581;47.334;11.190;2023-07-08T01:02:28;13.40;99.90
16929;DHT22;8581;47.334;11.190;2023-07-08T01:05:04;13.40;99.90
16929;DHT22;8581;47.334;11.190;2023-07-08T01:07:34;13.30;99.90
16929;DHT22;8581;47.334;11.190;2023-07-08T01:10:08;13.20;99.90
16929;DHT22;8581;47.334;11.190;2023-07-08T01:12:43;13.40;99.90
16929;DHT22;8581;47.334;11.190;2023-07-08T01:15:13;13.40;99.90
16929;DHT22;8581;47.334;11.190;2023-07-08T01:17:44;13.30;99.90
16929;DHT22;8581;47.334;11.190;2023-07-08T01:20:16;13.30;99.90
16929;DHT22;8581;47.334;11.190;2023-07-08T01:22:48;13.20;99.90
16929;DHT22;8581;47.334;11.190;2023-07-08T01:25:19;13.20;99.90
16929;DHT22;8581;47.334;11.190;2023-07-08T01:27:53;13.00;99.90
16929;DHT22;8581;47.334;11.190;2023-07-08T01:30:25;12.90;99.90
16929;DHT22;8581;47.334;11.190;2023-07-08T01:32:56;12.90;99.90
16929;DHT22;8581;47.334;11.190;2023-07-08T01:35:27;13.00;99.90
16929;DHT22;8581;47.334;11.190;2023-07-08T01:38:00;13.00;99.90
16929;DHT22;8581;47.334;11.190;2023-07-08T01:40:32;12.90;99.90
16929;DHT22;8581;47.334;11.190;2023-07-08T01:43:04;12.90;99.90
16929;DHT22;8581;47.334;11.190;2023-07-08T01:45:36;12.70;99.90
16929;DHT22;8581;47.334;11.190;2023-07-08T01:48:07;12.60;99.90
16929;DHT22;8581;47.334;11.190;2023-07-08T01:50:42;12.40;99.90
16929;DHT22;8581;47.334;11.190;2023-07-08T01:53:18;12.50;99.90
16929;DHT22;8581;47.334;11.190;2023-07-08T01:55:48;12.60;99.90
16929;DHT22;8581;47.334;11.190;2023-07-08T01:58:19;12.70;99.90
16929;DHT22;8581;47.334;11.190;2023-07-08T02:00:51;12.70;99.90
16929;DHT22;8581;47.334;11.190;2023-07-08T02:03:23;12.50;99.90
16929;DHT22;8581;47.334;11.190;2023-07-08T02:05:54;12.40;99.90
16929;DHT22;8581;47.334;11.190;2023-07-08T02:08:26;12.40;99.90
16929;DHT22;8581;47.334;11.190;2023-07-08T02:10:58;12.50;99.90
16929;DHT22;8581;47.334;11.190;2023-07-08T02:13:29;12.40;99.90
16929;DHT22;8581;47.334;11.190;2023-07-08T02:16:01;12.40;99.90
16929;DHT22;8581;47.334;11.190;2023-07-08T02:18:32;12.60;99.90
16929;DHT22;8581;47.334;11.190;2023-07-08T02:21:04;12.70;99.90
16929;DHT22;8581;47.334;11.190;2023-07-08T02:23:35;12.70;99.90
16929;DHT22;8581;47.334;11.190;2023-07-08T02:26:07;12.50;99.90
16929;DHT22;8581;47.334;11.190;2023-07-08T02:28:39;12.30;99.90
16929;DHT22;8581;47.334;11.190;2023-07-08T02:31:10;12.10;99.90
16929;DHT22;8581;47.334;11.190;2023-07-08T02:33:42;12.10;99.90
16929;DHT22;8581;47.334;11.190;2023-07-08T02:36:13;12.20;99.90
16929;DHT22;8581;47.334;11.190;2023-07-08T02:38:45;12.30;99.90
16929;DHT22;8581;47.334;11.190;2023-07-08T02:41:17;12.40;99.90
16929;DHT22;8581;47.334;11.190;2023-07-08T02:43:48;12.40;99.90
16929;DHT22;8581;47.334;11.190;2023-07-08T02:46:20;12.30;99.90
16929;DHT22;8581;47.334;11.190;2023-07-08T02:48:51;12.30;99.90
16929;DHT22;8581;47.334;11.190;2023-07-08T02:51:23;12.30;99.90
16929;DHT22;8581;47.334;11.190;2023-07-08T02:53:55;12.40;99.90
16929;DHT22;8581;47.334;11.190;2023-07-08T02:56:26;12.40;99.90
16929;DHT22;8581;47.334;11.190;2023-07-08T02:58:58;12.30;99.90
16929;DHT22;8581;47.334;11.190;2023-07-08T03:01:29;12.30;99.90
16929;DHT22;8581;47.334;11.190;2023-07-08T03:04:01;12.30;99.90
16929;DHT22;8581;47.334;11.190;2023-07-08T03:06:33;12.20;99.90
16929;DHT22;8581;47.334;11.190;2023-07-08T03:09:04;12.20;99.90
16929;DHT22;8581;47.334;11.190;2023-07-08T03:11:36;12.10;99.90
16929;DHT22;8581;47.334;11.190;2023-07-08T03:14:07;12.20;99.90
16929;DHT22;8581;47.334;11.190;2023-07-08T03:16:39;12.40;99.90
16929;DHT22;8581;47.334;11.190;2023-07-08T03:19:11;12.40;99.90
16929;DHT22;8581;47.334;11.190;2023-07-08T03:21:42;12.30;99.90
16929;DHT22;8581;47.334;11.190;2023-07-08T03:24:14;12.40;99.90
16929;DHT22;8581;47.334;11.190;2023-07-08T03:26:45;12.60;99.90
16929;DHT22;8581;47.334;11.190;2023-07-08T03:29:18;12.70;99.90
16929;DHT22;8581;47.334;11.190;2023-07-08T03:31:49;12.80;99.90
16929;DHT22;8581;47.334;11.190;2023-07-08T03:34:20;12.80;99.90
16929;DHT22;8581;47.334;11.190;2023-07-08T03:36:52;12.70;99.90
16929;DHT22;8581;47.334;11.190;2023-07-08T03:39:23;12.60;99.90
16929;DHT22;8581;47.334;11.190;2023-07-08T03:41:56;12.60;99.90
16929;DHT22;8581;47.334;11.190;2023-07-08T03:44:27;12.60;99.90
16929;DHT22;8581;47.334;11.190;2023-07-08T03:46:59;12.60;99.90
16929;DHT22;8581;47.334;11.190;2023-07-08T03:49:31;12.70;99.90
16929;DHT22;8581;47.334;11.190;2023-07-08T03:52:03;12.30;99.90
16929;DHT22;8581;47.334;11.190;2023-07-08T03:54:35;12.70;99.90
16929;DHT22;8581;47.334;11.190;2023-07-08T03:57:06;12.70;99.90
16929;DHT22;8581;47.334;11.190;2023-07-08T03:59:38;12.80;99.90
16929;DHT22;8581;47.334;11.190;2023-07-08T04:02:11;12.70;99.90
16929;DHT22;8581;47.334;11.190;2023-07-08T04:04:42;12.60;99.90
16929;DHT22;8581;47.334;11.190;2023-07-08T04:07:13;12.60;99.90
16929;DHT22;8581;47.334;11.190;2023-07-08T04:09:45;12.70;99.90
16929;DHT22;8581;47.334;11.190;2023-07-08T04:12:17;12.60;99.90
16929;DHT22;8581;47.334;11.190;2023-07-08T04:14:48;12.60;99.90
16929;DHT22;8581;47.334;11.190;2023-07-08T04:17:20;12.80;99.90
16929;DHT22;8581;47.334;11.190;2023-07-08T04:19:51;12.90;99.90
16929;DHT22;8581;47.334;11.190;2023-07-08T04:22:23;13.00;99.90
16929;DHT22;8581;47.334;11.190;2023-07-08T04:24:55;13.10;99.90
16929;DHT22;8581;47.334;11.190;2023-07-08T04:27:26;13.20;99.90
16929;DHT22;8581;47.334;11.190;2023-07-08T04:29:58;13.10;99.90
16929;DHT22;8581;47.334;11.190;2023-07-08T04:32:29;13.00;99.90
16929;DHT22;8581;47.334;11.190;2023-07-08T04:35:01;13.10;99.90
16929;DHT22;8581;47.334;11.190;2023-07-08T04:37:33;13.10;99.90
16929;DHT22;8581;47.334;11.190;2023-07-08T04:40:06;13.30;99.90
16929;DHT22;8581;47.334;11.190;2023-07-08T04:42:37;13.50;99.90
16929;DHT22;8581;47.334;11.190;2023-07-08T04:45:09;13.50;99.90
16929;DHT22;8581;47.334;11.190;2023-07-08T04:47:41;13.50;99.90
16929;DHT22;8581;47.334;11.190;2023-07-08T04:50:12;13.50;99.90
16929;DHT22;8581;47.334;11.190;2023-07-08T04:52:44;13.50;99.90
16929;DHT22;8581;47.334;11.190;2023-07-08T04:55:16;13.60;99.90
16929;DHT22;8581;47.334;11.190;2023-07-08T04:57:47;13.80;99.90
16929;DHT22;8581;47.334;11.190;2023-07-08T05:00:19;14.00;99.90
16929;DHT22;8581;47.334;11.190;2023-07-08T05:02:51;14.10;99.90
16929;DHT22;8581;47.334;11.190;2023-07-08T05:05:22;14.10;99.90
16929;DHT22;8581;47.334;11.190;2023-07-08T05:07:54;14.10;99.90
16929;DHT22;8581;47.334;11.190;2023-07-08T05:10:25;14.40;99.90
16929;DHT22;8581;47.334;11.190;2023-07-08T05:12:57;14.40;99.90
16929;DHT22;8581;47.334;11.190;2023-07-08T05:15:29;14.60;99.90
16929;DHT22;8581;47.334;11.190;2023-07-08T05:18:00;14.80;99.90
16929;DHT22;8581;47.334;11.190;2023-07-08T05:20:32;14.90;99.90
16929;DHT22;8581;47.334;11.190;2023-07-08T05:23:03;15.10;99.90
16929;DHT22;8581;47.334;11.190;2023-07-08T05:25:35;15.30;99.90
16929;DHT22;8581;47.334;11.190;2023-07-08T05:28:07;15.60;99.90
16929;DHT22;8581;47.334;11.190;2023-07-08T05:30:39;15.90;99.90
16929;DHT22;8581;47.334;11.190;2023-07-08T05:33:10;16.20;99.90
16929;DHT22;8581;47.334;11.190;2023-07-08T05:35:41;16.20;99.90
16929;DHT22;8581;47.334;11.190;2023-07-08T05:38:13;16.30;99.90
16929;DHT22;8581;47.334;11.190;2023-07-08T05:40:51;16.40;99.90
16929;DHT22;8581;47.334;11.190;2023-07-08T05:43:22;16.70;99.90
16929;DHT22;8581;47.334;11.190;2023-07-08T05:45:57;16.90;99.90
16929;DHT22;8581;47.334;11.190;2023-07-08T05:48:28;16.90;99.90
16929;DHT22;8581;47.334;11.190;2023-07-08T05:51:00;17.00;99.90
16929;DHT22;8581;47.334;11.190;2023-07-08T05:53:31;17.10;99.90
16929;DHT22;8581;47.334;11.190;2023-07-08T05:56:03;17.10;99.90
16929;DHT22;8581;47.334;11.190;2023-07-08T05:58:34;17.10;99.90
16929;DHT22;8581;47.334;11.190;2023-07-08T06:01:06;17.10;99.90
16929;DHT22;8581;47.334;11.190;2023-07-08T06:03:38;17.00;99.90
16929;DHT22;8581;47.334;11.190;2023-07-08T06:06:09;17.10;99.90
16929;DHT22;8581;47.334;11.190;2023-07-08T06:08:41;17.20;99.90
16929;DHT22;8581;47.334;11.190;2023-07-08T06:11:12;17.10;99.90
16929;DHT22;8581;47.334;11.190;2023-07-08T06:13:44;17.40;99.90
16929;DHT22;8581;47.334;11.190;2023-07-08T06:16:16;17.40;99.90
16929;DHT22;8581;47.334;11.190;2023-07-08T06:18:47;17.70;99.90
16929;DHT22;8581;47.334;11.190;2023-07-08T06:21:19;17.90;99.90
16929;DHT22;8581;47.334;11.190;2023-07-08T06:23:50;18.20;99.90
16929;DHT22;8581;47.334;11.190;2023-07-08T06:26:22;18.40;99.90
16929;DHT22;8581;47.334;11.190;2023-07-08T06:28:54;18.70;99.90
16929;DHT22;8581;47.334;11.190;2023-07-08T06:31:25;18.80;99.90
16929;DHT22;8581;47.334;11.190;2023-07-08T06:33:57;19.00;99.90
16929;DHT22;8581;47.334;11.190;2023-07-08T06:36:28;19.10;99.90
16929;DHT22;8581;47.334;11.190;2023-07-08T06:39:00;19.10;99.90
16929;DHT22;8581;47.334;11.190;2023-07-08T06:41:32;19.20;99.90
16929;DHT22;8581;47.334;11.190;2023-07-08T06:44:03;19.40;99.90
16929;DHT22;8581;47.334;11.190;2023-07-08T06:46:35;19.40;99.90
16929;DHT22;8581;47.334;11.190;2023-07-08T06:49:07;19.60;99.90
16929;DHT22;8581;47.334;11.190;2023-07-08T06:51:38;19.80;99.90
16929;DHT22;8581;47.334;11.190;2023-07-08T06:54:10;19.90;99.90
16929;DHT22;8581;47.334;11.190;2023-07-08T06:56:42;20.00;99.90
16929;DHT22;8581;47.334;11.190;2023-07-08T06:59:14;20.30;99.90
16929;DHT22;8581;47.334;11.190;2023-07-08T07:01:45;20.60;99.90
16929;DHT22;8581;47.334;11.190;2023-07-08T07:04:17;20.90;99.90
16929;DHT22;8581;47.334;11.190;2023-07-08T07:06:49;21.10;99.90
16929;DHT22;8581;47.334;11.190;2023-07-08T07:09:20;21.30;99.90
16929;DHT22;8581;47.334;11.190;2023-07-08T07:11:52;21.20;99.90
16929;DHT22;8581;47.334;11.190;2023-07-08T07:14:23;21.30;99.90
16929;DHT22;8581;47.334;11.190;2023-07-08T07:16:55;21.30;99.90
16929;DHT22;8581;47.334;11.190;2023-07-08T07:19:27;21.30;99.90
16929;DHT22;8581;47.334;11.190;2023-07-08T07:21:58;21.30;99.90
16929;DHT22;8581;47.334;11.190;2023-07-08T07:24:30;21.20;99.90
16929;DHT22;8581;47.334;11.190;2023-07-08T07:27:01;21.20;99.90
16929;DHT22;8581;47.334;11.190;2023-07-08T07:29:40;21.40;99.90
16929;DHT22;8581;47.334;11.190;2023-07-08T07:32:11;21.60;99.90
16929;DHT22;8581;47.334;11.190;2023-07-08T07:34:42;21.70;99.90
16929;DHT22;8581;47.334;11.190;2023-07-08T07:37:15;21.80;99.90
16929;DHT22;8581;47.334;11.190;2023-07-08T07:39:45;21.70;99.90
16929;DHT22;8581;47.334;11.190;2023-07-08T07:42:17;21.80;99.90
16929;DHT22;8581;47.334;11.190;2023-07-08T07:44:48;21.80;99.90
16929;DHT22;8581;47.334;11.190;2023-07-08T07:47:20;22.00;99.90
16929;DHT22;8581;47.334;11.190;2023-07-08T07:49:52;21.90;99.90
16929;DHT22;8581;47.334;11.190;2023-07-08T07:52:23;21.90;99.90
16929;DHT22;8581;47.334;11.190;2023-07-08T07:54:55;21.90;99.90
16929;DHT22;8581;47.334;11.190;2023-07-08T07:57:26;22.00;99.90
16929;DHT22;8581;47.334;11.190;2023-07-08T07:59:58;22.00;99.90
16929;DHT22;8581;47.334;11.190;2023-07-08T08:02:30;22.30;99.90
16929;DHT22;8581;47.334;11.190;2023-07-08T08:05:01;22.80;99.90
16929;DHT22;8581;47.334;11.190;2023-07-08T08:07:33;23.50;99.90
16929;DHT22;8581;47.334;11.190;2023-07-08T08:10:05;23.60;99.90
16929;DHT22;8581;47.334;11.190;2023-07-08T08:12:37;23.50;99.90
16929;DHT22;8581;47.334;11.190;2023-07-08T08:15:09;23.40;99.90
16929;DHT22;8581;47.334;11.190;2023-07-08T08:17:41;22.90;99.90
16929;DHT22;8581;47.334;11.190;2023-07-08T08:20:13;22.70;99.90
16929;DHT22;8581;47.334;11.190;2023-07-08T08:22:45;22.70;99.90
16929;DHT22;8581;47.334;11.190;2023-07-08T08:25:16;22.70;99.90
16929;DHT22;8581;47.334;11.190;2023-07-08T08:27:47;22.80;99.90
16929;DHT22;8581;47.334;11.190;2023-07-08T08:30:19;23.00;99.90
16929;DHT22;8581;47.334;11.190;2023-07-08T08:32:51;23.10;99.90
16929;DHT22;8581;47.334;11.190;2023-07-08T08:35:22;23.80;99.90
16929;DHT22;8581;47.334;11.190;2023-07-08T08:37:54;24.10;99.90
16929;DHT22;8581;47.334;11.190;2023-07-08T08:40:25;24.50;99.90
16929;DHT22;8581;47.334;11.190;2023-07-08T08:42:58;24.50;99.90
16929;DHT22;8581;47.334;11.190;2023-07-08T08:45:29;24.60;99.90
16929;DHT22;8581;47.334;11.190;2023-07-08T08:48:01;24.40;99.90
16929;DHT22;8581;47.334;11.190;2023-07-08T08:50:36;24.90;99.90
16929;DHT22;8581;47.334;11.190;2023-07-08T08:53:06;24.80;99.90
16929;DHT22;8581;47.334;11.190;2023-07-08T08:55:37;24.90;99.90
16929;DHT22;8581;47.334;11.190;2023-07-08T08:58:23;24.60;99.90
16929;DHT22;8581;47.334;11.190;2023-07-08T09:00:54;24.50;99.90
16929;DHT22;8581;47.334;11.190;2023-07-08T09:03:37;24.40;99.90
16929;DHT22;8581;47.334;11.190;2023-07-08T09:06:17;24.80;99.90
16929;DHT22;8581;47.334;11.190;2023-07-08T09:08:46;25.20;99.90
16929;DHT22;8581;47.334;11.190;2023-07-08T09:11:52;25.50;99.90
16929;DHT22;8581;47.334;11.190;2023-07-08T09:14:13;25.70;99.90
16929;DHT22;8581;47.334;11.190;2023-07-08T09:16:45;25.20;99.90
16929;DHT22;8581;47.334;11.190;2023-07-08T09:19:32;25.70;99.90
16929;DHT22;8581;47.334;11.190;2023-07-08T09:24:43;26.20;99.90
16929;DHT22;8581;47.334;11.190;2023-07-08T09:27:14;26.60;99.90
16929;DHT22;8581;47.334;11.190;2023-07-08T09:29:46;26.50;99.90
16929;DHT22;8581;47.334;11.190;2023-07-08T09:32:19;26.10;99.90
16929;DHT22;8581;47.334;11.190;2023-07-08T09:34:51;25.90;99.90
16929;DHT22;8581;47.334;11.190;2023-07-08T09:37:25;26.40;99.90
16929;DHT22;8581;47.334;11.190;2023-07-08T09:39:56;27.00;99.90
16929;DHT22;8581;47.334;11.190;2023-07-08T09:42:31;27.40;99.30
16929;DHT22;8581;47.334;11.190;2023-07-08T09:45:01;27.40;96.90
16929;DHT22;8581;47.334;11.190;2023-07-08T09:47:33;27.60;96.50
16929;DHT22;8581;47.334;11.190;2023-07-08T09:50:21;26.80;98.60
16929;DHT22;8581;47.334;11.190;2023-07-08T09:52:54;26.10;96.70
16929;DHT22;8581;47.334;11.190;2023-07-08T09:55:24;26.20;99.90
16929;DHT22;8581;47.334;11.190;2023-07-08T09:57:56;26.40;99.90
16929;DHT22;8581;47.334;11.190;2023-07-08T10:00:29;26.50;97.00
16929;DHT22;8581;47.334;11.190;2023-07-08T10:03:02;26.80;99.10
16929;DHT22;8581;47.334;11.190;2023-07-08T10:05:33;27.20;97.50
16929;DHT22;8581;47.334;11.190;2023-07-08T10:08:10;28.10;99.40
16929;DHT22;8581;47.334;11.190;2023-07-08T10:10:36;29.60;97.20
16929;DHT22;8581;47.334;11.190;2023-07-08T10:13:17;30.40;96.80
16929;DHT22;8581;47.334;11.190;2023-07-08T10:15:52;30.90;93.40
16929;DHT22;8581;47.334;11.190;2023-07-08T10:18:25;31.30;94.80
16929;DHT22;8581;47.334;11.190;2023-07-08T10:20:59;30.40;93.90
16929;DHT22;8581;47.334;11.190;2023-07-08T10:23:40;30.10;92.00
16929;DHT22;8581;47.334;11.190;2023-07-08T10:26:20;30.40;94.10
16929;DHT22;8581;47.334;11.190;2023-07-08T10:29:00;31.00;90.30
16929;DHT22;8581;47.334;11.190;2023-07-08T10:31:31;32.00;91.70
16929;DHT22;8581;47.334;11.190;2023-07-08T10:34:10;32.60;91.40
16929;DHT22;8581;47.334;11.190;2023-07-08T10:39:48;33.40;83.50
16929;DHT22;8581;47.334;11.190;2023-07-08T10:42:26;33.80;86.50
16929;DHT22;8581;47.334;11.190;2023-07-08T10:45:15;33.70;76.80
16929;DHT22;8581;47.334;11.190;2023-07-08T10:48:07;32.80;86.00
16929;DHT22;8581;47.334;11.190;2023-07-08T10:50:44;32.00;83.90
16929;DHT22;8581;47.334;11.190;2023-07-08T10:55:56;31.50;84.30
16929;DHT22;8581;47.334;11.190;2023-07-08T10:59:02;32.30;83.20
16929;DHT22;8581;47.334;11.190;2023-07-08T11:01:37;33.20;81.20
16929;DHT22;8581;47.334;11.190;2023-07-08T11:04:26;34.80;78.70
16929;DHT22;8581;47.334;11.190;2023-07-08T11:06:57;35.20;75.40
16929;DHT22;8581;47.334;11.190;2023-07-08T11:09:29;34.20;77.70
16929;DHT22;8581;47.334;11.190;2023-07-08T11:12:01;34.40;76.90
16929;DHT22;8581;47.334;11.190;2023-07-08T11:14:48;34.20;77.50
16929;DHT22;8581;47.334;11.190;2023-07-08T11:17:36;34.90;77.20
16929;DHT22;8581;47.334;11.190;2023-07-08T11:20:19;34.50;75.70
16929;DHT22;8581;47.334;11.190;2023-07-08T11:22:52;33.40;74.40
16929;DHT22;8581;47.334;11.190;2023-07-08T11:25:21;33.90;73.40
16929;DHT22;8581;47.334;11.190;2023-07-08T11:27:55;34.30;74.00
16929;DHT22;8581;47.334;11.190;2023-07-08T11:30:25;33.50;72.40
16929;DHT22;8581;47.334;11.190;2023-07-08T11:33:05;32.50;75.20
16929;DHT22;8581;47.334;11.190;2023-07-08T11:35:41;32.20;77.30
16929;DHT22;8581;47.334;11.190;2023-07-08T11:38:13;31.30;79.00
16929;DHT22;8581;47.334;11.190;2023-07-08T11:40:49;31.20;80.00
16929;DHT22;8581;47.334;11.190;2023-07-08T11:43:20;30.70;81.30
16929;DHT22;8581;47.334;11.190;2023-07-08T11:45:54;30.60;81.60
16929;DHT22;8581;47.334;11.190;2023-07-08T11:48:26;30.30;81.30
16929;DHT22;8581;47.334;11.190;2023-07-08T11:50:56;30.20;82.50
16929;DHT22;8581;47.334;11.190;2023-07-08T11:53:38;30.60;80.00
16929;DHT22;8581;47.334;11.190;2023-07-08T11:56:24;30.30;84.20
16929;DHT22;8581;47.334;11.190;2023-07-08T11:59:03;30.60;85.30
16929;DHT22;8581;47.334;11.190;2023-07-08T12:01:37;29.80;87.80
16929;DHT22;8581;47.334;11.190;2023-07-08T12:04:25;29.50;87.00
16929;DHT22;8581;47.334;11.190;2023-07-08T12:07:03;29.70;90.60
16929;DHT22;8581;47.334;11.190;2023-07-08T12:09:38;31.20;88.70
16929;DHT22;8581;47.334;11.190;2023-07-08T12:12:14;33.10;83.20
16929;DHT22;8581;47.334;11.190;2023-07-08T12:14:40;33.40;83.30
16929;DHT22;8581;47.334;11.190;2023-07-08T12:17:12;32.70;82.50
16929;DHT22;8581;47.334;11.190;2023-07-08T12:19:43;32.10;82.90
16929;DHT22;8581;47.334;11.190;2023-07-08T12:22:14;31.90;84.60
16929;DHT22;8581;47.334;11.190;2023-07-08T12:24:46;31.40;82.50
16929;DHT22;8581;47.334;11.190;2023-07-08T12:27:18;30.40;84.80
16929;DHT22;8581;47.334;11.190;2023-07-08T12:29:49;29.70;87.00
16929;DHT22;8581;47.334;11.190;2023-07-08T12:32:21;29.20;87.80
16929;DHT22;8581;47.334;11.190;2023-07-08T12:34:52;28.70;89.40
16929;DHT22;8581;47.334;11.190;2023-07-08T12:37:24;29.00;90.50
16929;DHT22;8581;47.334;11.190;2023-07-08T12:39:56;29.20;89.50
16929;DHT22;8581;47.334;11.190;2023-07-08T12:42:27;28.70;89.90
16929;DHT22;8581;47.334;11.190;2023-07-08T12:44:59;29.70;91.40
16929;DHT22;8581;47.334;11.190;2023-07-08T12:47:30;30.70;90.70
16929;DHT22;8581;47.334;11.190;2023-07-08T12:50:02;32.80;86.70
16929;DHT22;8581;47.334;11.190;2023-07-08T12:52:34;33.40;84.60
16929;DHT22;8581;47.334;11.190;2023-07-08T12:55:09;32.60;83.30
16929;DHT22;8581;47.334;11.190;2023-07-08T12:57:42;31.90;85.50
16929;DHT22;8581;47.334;11.190;2023-07-08T13:00:16;31.50;86.40
16929;DHT22;8581;47.334;11.190;2023-07-08T13:02:46;31.00;85.90
16929;DHT22;8581;47.334;11.190;2023-07-08T13:05:18;30.50;87.90
16929;DHT22;8581;47.334;11.190;2023-07-08T13:07:49;30.50;87.70
16929;DHT22;8581;47.334;11.190;2023-07-08T13:10:21;30.60;89.20
16929;DHT22;8581;47.334;11.190;2023-07-08T13:12:54;31.20;88.70
16929;DHT22;8581;47.334;11.190;2023-07-08T13:15:29;30.80;86.30
16929;DHT22;8581;47.334;11.190;2023-07-08T13:17:59;31.80;89.00
16929;DHT22;8581;47.334;11.190;2023-07-08T13:20:31;35.00;83.60
16929;DHT22;8581;47.334;11.190;2023-07-08T13:23:03;35.70;78.60
16929;DHT22;8581;47.334;11.190;2023-07-08T13:25:37;36.40;79.60
16929;DHT22;8581;47.334;11.190;2023-07-08T13:28:16;37.40;76.60
16929;DHT22;8581;47.334;11.190;2023-07-08T13:30:51;36.90;76.40
16929;DHT22;8581;47.334;11.190;2023-07-08T13:33:22;37.60;75.30
16929;DHT22;8581;47.334;11.190;2023-07-08T13:35:53;36.00;75.60
16929;DHT22;8581;47.334;11.190;2023-07-08T13:38:26;34.50;77.20
16929;DHT22;8581;47.334;11.190;2023-07-08T13:40:58;32.00;81.40
16929;DHT22;8581;47.334;11.190;2023-07-08T13:43:29;30.60;85.30
16929;DHT22;8581;47.334;11.190;2023-07-08T13:46:00;29.80;85.30
16929;DHT22;8581;47.334;11.190;2023-07-08T13:48:37;29.60;87.80
16929;DHT22;8581;47.334;11.190;2023-07-08T13:51:18;28.90;88.20
16929;DHT22;8581;47.334;11.190;2023-07-08T13:53:51;28.20;90.10
16929;DHT22;8581;47.334;11.190;2023-07-08T13:56:25;27.60;90.50
16929;DHT22;8581;47.334;11.190;2023-07-08T13:59:02;26.50;92.30
16929;DHT22;8581;47.334;11.190;2023-07-08T14:01:33;25.70;93.40
16929;DHT22;8581;47.334;11.190;2023-07-08T14:04:04;24.90;94.10
16929;DHT22;8581;47.334;11.190;2023-07-08T14:06:37;24.30;96.80
16929;DHT22;8581;47.334;11.190;2023-07-08T14:09:12;23.70;97.50
16929;DHT22;8581;47.334;11.190;2023-07-08T14:11:42;23.80;99.90
16929;DHT22;8581;47.334;11.190;2023-07-08T14:14:13;24.40;99.90
16929;DHT22;8581;47.334;11.190;2023-07-08T14:16:47;24.50;99.80
16929;DHT22;8581;47.334;11.190;2023-07-08T14:19:25;24.40;99.90
16929;DHT22;8581;47.334;11.190;2023-07-08T14:21:58;24.50;99.90
16929;DHT22;8581;47.334;11.190;2023-07-08T14:24:29;24.70;99.90
16929;DHT22;8581;47.334;11.190;2023-07-08T14:27:00;24.70;99.90
16929;DHT22;8581;47.334;11.190;2023-07-08T14:29:32;24.70;99.90
16929;DHT22;8581;47.334;11.190;2023-07-08T14:32:04;24.70;99.90
16929;DHT22;8581;47.334;11.190;2023-07-08T14:34:36;25.00;99.90
16929;DHT22;8581;47.334;11.190;2023-07-08T14:37:13;25.60;99.90
16929;DHT22;8581;47.334;11.190;2023-07-08T14:39:43;25.50;99.90
16929;DHT22;8581;47.334;11.190;2023-07-08T14:42:16;25.60;99.90
16929;DHT22;8581;47.334;11.190;2023-07-08T14:44:48;25.90;99.90
16929;DHT22;8581;47.334;11.190;2023-07-08T14:47:19;27.30;99.30
16929;DHT22;8581;47.334;11.190;2023-07-08T14:49:50;28.10;98.70
16929;DHT22;8581;47.334;11.190;2023-07-08T14:52:24;31.10;95.00
16929;DHT22;8581;47.334;11.190;2023-07-08T14:54:55;32.00;93.00
16929;DHT22;8581;47.334;11.190;2023-07-08T14:57:27;32.90;90.80
16929;DHT22;8581;47.334;11.190;2023-07-08T14:59:59;35.10;87.50
16929;DHT22;8581;47.334;11.190;2023-07-08T15:02:30;35.60;84.60
16929;DHT22;8581;47.334;11.190;2023-07-08T15:05:02;35.70;86.60
16929;DHT22;8581;47.334;11.190;2023-07-08T15:07:33;36.30;81.90
16929;DHT22;8581;47.334;11.190;2023-07-08T15:10:06;37.30;79.10
16929;DHT22;8581;47.334;11.190;2023-07-08T15:12:38;37.90;78.20
16929;DHT22;8581;47.334;11.190;2023-07-08T15:15:26;37.90;77.10
16929;DHT22;8581;47.334;11.190;2023-07-08T15:17:57;39.00;76.00
16929;DHT22;8581;47.334;11.190;2023-07-08T15:20:28;39.00;76.20
16929;DHT22;8581;47.334;11.190;2023-07-08T15:23:00;38.20;73.50
16929;DHT22;8581;47.334;11.190;2023-07-08T15:25:32;39.00;75.00
16929;DHT22;8581;47.334;11.190;2023-07-08T15:28:04;39.30;74.50
16929;DHT22;8581;47.334;11.190;2023-07-08T15:30:35;38.70;73.70
16929;DHT22;8581;47.334;11.190;2023-07-08T15:33:08;38.90;73.90
16929;DHT22;8581;47.334;11.190;2023-07-08T15:35:40;39.10;72.80
16929;DHT22;8581;47.334;11.190;2023-07-08T15:38:11;35.70;77.00
16929;DHT22;8581;47.334;11.190;2023-07-08T15:40:43;33.30;81.70
16929;DHT22;8581;47.334;11.190;2023-07-08T15:43:17;31.70;84.80
16929;DHT22;8581;47.334;11.190;2023-07-08T15:45:51;30.20;84.50
16929;DHT22;8581;47.334;11.190;2023-07-08T15:48:23;29.70;89.60
16929;DHT22;8581;47.334;11.190;2023-07-08T15:50:55;29.60;90.50
16929;DHT22;8581;47.334;11.190;2023-07-08T15:53:26;32.20;87.20
16929;DHT22;8581;47.334;11.190;2023-07-08T15:55:58;31.90;86.30
16929;DHT22;8581;47.334;11.190;2023-07-08T15:58:30;31.70;87.20
16929;DHT22;8581;47.334;11.190;2023-07-08T16:01:01;31.30;86.50
16929;DHT22;8581;47.334;11.190;2023-07-08T16:03:35;30.30;88.40
16929;DHT22;8581;47.334;11.190;2023-07-08T16:06:04;29.90;90.40
16929;DHT22;8581;47.334;11.190;2023-07-08T16:08:36;28.90;90.10
16929;DHT22;8581;47.334;11.190;2023-07-08T16:11:11;28.60;91.20
16929;DHT22;8581;47.334;11.190;2023-07-08T16:13:42;28.40;92.30
16929;DHT22;8581;47.334;11.190;2023-07-08T16:16:13;29.50;91.70